sensor_id;sensor_type;location;lat;lon;timestamp;P1;durP1;ratioP1;P2;durP2;ratioP2
75156;SDS011;63736;50.076;8.198;2023-04-24T00:00:15;205.80;;;74.33;;
75156;SDS011;63736;50.076;8.198;2023-04-24T00:02:41;199.85;;;71.10;;
75156;SDS011;63736;50.076;8.198;2023-04-24T00:05:09;197.80;;;68.87;;
75156;SDS011;63736;50.076;8.198;2023-04-24T00:07:35;200.80;;;71.30;;
75156;SDS011;63736;50.076;8.198;2023-04-24T00:10:00;195.00;;;68.70;;
75156;SDS011;63736;50.076;8.198;2023-04-24T00:12:26;194.70;;;68.10;;
75156;SDS011;63736;50.076;8.198;2023-04-24T00:14:51;191.40;;;68.75;;
75156;SDS011;63736;50.076;8.198;2023-04-24T00:17:17;189.53;;;67.97;;
75156;SDS011;63736;50.076;8.198;2023-04-24T00:19:46;186.07;;;67.05;;
75156;SDS011;63736;50.076;8.198;2023-04-24T00:22:12;186.88;;;66.35;;
75156;SDS011;63736;50.076;8.198;2023-04-24T00:24:38;186.63;;;65.27;;
75156;SDS011;63736;50.076;8.198;2023-04-24T00:27:03;185.20;;;65.47;;
75156;SDS011;63736;50.076;8.198;2023-04-24T00:29:29;185.43;;;65.70;;
75156;SDS011;63736;50.076;8.198;2023-04-24T00:31:54;183.90;;;65.40;;
75156;SDS011;63736;50.076;8.198;2023-04-24T00:34:19;183.47;;;65.70;;
75156;SDS011;63736;50.076;8.198;2023-04-24T00:36:45;183.83;;;66.53;;
75156;SDS011;63736;50.076;8.198;2023-04-24T00:39:10;183.30;;;65.43;;
75156;SDS011;63736;50.076;8.198;2023-04-24T00:41:36;182.70;;;64.83;;
75156;SDS011;63736;50.076;8.198;2023-04-24T00:44:01;179.80;;;64.63;;
75156;SDS011;63736;50.076;8.198;2023-04-24T00:46:26;186.30;;;66.67;;
75156;SDS011;63736;50.076;8.198;2023-04-24T00:48:52;178.37;;;64.10;;
75156;SDS011;63736;50.076;8.198;2023-04-24T00:51:18;176.87;;;63.90;;
75156;SDS011;63736;50.076;8.198;2023-04-24T00:53:43;176.07;;;64.45;;
75156;SDS011;63736;50.076;8.198;2023-04-24T00:56:08;174.13;;;63.93;;
75156;SDS011;63736;50.076;8.198;2023-04-24T00:58:34;175.50;;;63.07;;
75156;SDS011;63736;50.076;8.198;2023-04-24T01:01:00;171.32;;;63.13;;
75156;SDS011;63736;50.076;8.198;2023-04-24T01:03:28;172.57;;;63.03;;
75156;SDS011;63736;50.076;8.198;2023-04-24T01:05:56;171.50;;;62.85;;
75156;SDS011;63736;50.076;8.198;2023-04-24T01:08:23;169.50;;;63.83;;
75156;SDS011;63736;50.076;8.198;2023-04-24T01:10:49;170.07;;;63.03;;
75156;SDS011;63736;50.076;8.198;2023-04-24T01:13:18;170.77;;;63.08;;
75156;SDS011;63736;50.076;8.198;2023-04-24T01:15:44;173.27;;;63.47;;
75156;SDS011;63736;50.076;8.198;2023-04-24T01:18:10;163.68;;;61.80;;
75156;SDS011;63736;50.076;8.198;2023-04-24T01:20:35;165.90;;;61.83;;
75156;SDS011;63736;50.076;8.198;2023-04-24T01:23:04;172.10;;;62.83;;
75156;SDS011;63736;50.076;8.198;2023-04-24T01:25:30;171.32;;;63.03;;
75156;SDS011;63736;50.076;8.198;2023-04-24T01:27:56;168.67;;;62.40;;
75156;SDS011;63736;50.076;8.198;2023-04-24T01:30:21;170.90;;;63.83;;
75156;SDS011;63736;50.076;8.198;2023-04-24T01:32:46;172.87;;;64.37;;
75156;SDS011;63736;50.076;8.198;2023-04-24T01:35:12;168.25;;;62.30;;
75156;SDS011;63736;50.076;8.198;2023-04-24T01:37:38;165.70;;;62.25;;
75156;SDS011;63736;50.076;8.198;2023-04-24T01:40:06;169.90;;;62.37;;
75156;SDS011;63736;50.076;8.198;2023-04-24T01:42:32;168.60;;;62.28;;
75156;SDS011;63736;50.076;8.198;2023-04-24T01:44:59;171.18;;;63.50;;
75156;SDS011;63736;50.076;8.198;2023-04-24T01:47:24;164.70;;;61.67;;
75156;SDS011;63736;50.076;8.198;2023-04-24T01:49:50;172.30;;;62.80;;
75156;SDS011;63736;50.076;8.198;2023-04-24T01:52:16;171.27;;;62.13;;
75156;SDS011;63736;50.076;8.198;2023-04-24T01:54:42;169.23;;;62.75;;
75156;SDS011;63736;50.076;8.198;2023-04-24T01:57:08;170.77;;;62.80;;
75156;SDS011;63736;50.076;8.198;2023-04-24T01:59:33;174.33;;;63.50;;
75156;SDS011;63736;50.076;8.198;2023-04-24T02:02:01;175.80;;;64.35;;
75156;SDS011;63736;50.076;8.198;2023-04-24T02:04:27;177.93;;;64.20;;
75156;SDS011;63736;50.076;8.198;2023-04-24T02:06:52;181.40;;;64.67;;
75156;SDS011;63736;50.076;8.198;2023-04-24T02:09:18;179.23;;;64.87;;
75156;SDS011;63736;50.076;8.198;2023-04-24T02:11:43;184.77;;;65.33;;
75156;SDS011;63736;50.076;8.198;2023-04-24T02:14:08;187.37;;;66.60;;
75156;SDS011;63736;50.076;8.198;2023-04-24T02:16:33;187.50;;;66.27;;
75156;SDS011;63736;50.076;8.198;2023-04-24T02:19:00;192.38;;;66.85;;
75156;SDS011;63736;50.076;8.198;2023-04-24T02:21:26;191.10;;;66.80;;
75156;SDS011;63736;50.076;8.198;2023-04-24T02:23:52;188.90;;;66.32;;
75156;SDS011;63736;50.076;8.198;2023-04-24T02:26:18;200.47;;;68.00;;
75156;SDS011;63736;50.076;8.198;2023-04-24T02:28:43;199.87;;;68.23;;
75156;SDS011;63736;50.076;8.198;2023-04-24T02:31:08;198.43;;;68.40;;
75156;SDS011;63736;50.076;8.198;2023-04-24T02:33:34;198.60;;;67.75;;
75156;SDS011;63736;50.076;8.198;2023-04-24T02:36:00;198.90;;;67.60;;
75156;SDS011;63736;50.076;8.198;2023-04-24T02:38:25;187.82;;;66.20;;
75156;SDS011;63736;50.076;8.198;2023-04-24T02:40:51;192.50;;;67.53;;
75156;SDS011;63736;50.076;8.198;2023-04-24T02:43:17;184.52;;;65.10;;
75156;SDS011;63736;50.076;8.198;2023-04-24T02:45:42;184.43;;;65.20;;
75156;SDS011;63736;50.076;8.198;2023-04-24T02:48:07;178.33;;;64.00;;
75156;SDS011;63736;50.076;8.198;2023-04-24T02:50:32;187.83;;;65.33;;
75156;SDS011;63736;50.076;8.198;2023-04-24T02:52:58;189.53;;;66.80;;
75156;SDS011;63736;50.076;8.198;2023-04-24T02:55:23;185.45;;;65.95;;
75156;SDS011;63736;50.076;8.198;2023-04-24T02:57:50;189.43;;;66.60;;
75156;SDS011;63736;50.076;8.198;2023-04-24T03:00:15;190.68;;;66.70;;
75156;SDS011;63736;50.076;8.198;2023-04-24T03:02:40;190.63;;;67.30;;
75156;SDS011;63736;50.076;8.198;2023-04-24T03:05:07;202.90;;;72.55;;
75156;SDS011;63736;50.076;8.198;2023-04-24T03:07:33;194.50;;;69.00;;
75156;SDS011;63736;50.076;8.198;2023-04-24T03:09:59;203.57;;;73.30;;
75156;SDS011;63736;50.076;8.198;2023-04-24T03:12:24;208.57;;;76.00;;
75156;SDS011;63736;50.076;8.198;2023-04-24T03:14:50;206.73;;;72.40;;
75156;SDS011;63736;50.076;8.198;2023-04-24T03:17:15;207.17;;;73.60;;
75156;SDS011;63736;50.076;8.198;2023-04-24T03:19:41;209.17;;;76.57;;
75156;SDS011;63736;50.076;8.198;2023-04-24T03:22:06;207.67;;;75.43;;
75156;SDS011;63736;50.076;8.198;2023-04-24T03:24:31;205.07;;;74.33;;
75156;SDS011;63736;50.076;8.198;2023-04-24T03:26:57;212.07;;;76.07;;
75156;SDS011;63736;50.076;8.198;2023-04-24T03:29:22;203.50;;;74.72;;
75156;SDS011;63736;50.076;8.198;2023-04-24T03:31:48;192.97;;;69.30;;
75156;SDS011;63736;50.076;8.198;2023-04-24T03:34:13;191.43;;;72.17;;
75156;SDS011;63736;50.076;8.198;2023-04-24T03:36:39;192.93;;;71.40;;
75156;SDS011;63736;50.076;8.198;2023-04-24T03:39:04;194.15;;;71.07;;
75156;SDS011;63736;50.076;8.198;2023-04-24T03:41:29;192.90;;;70.13;;
75156;SDS011;63736;50.076;8.198;2023-04-24T03:43:55;197.63;;;71.83;;
75156;SDS011;63736;50.076;8.198;2023-04-24T03:46:20;231.63;;;79.17;;
75156;SDS011;63736;50.076;8.198;2023-04-24T03:48:46;259.67;;;83.82;;
75156;SDS011;63736;50.076;8.198;2023-04-24T03:51:11;289.50;;;91.63;;
75156;SDS011;63736;50.076;8.198;2023-04-24T03:53:36;326.70;;;100.60;;
75156;SDS011;63736;50.076;8.198;2023-04-24T03:56:02;311.20;;;96.87;;
75156;SDS011;63736;50.076;8.198;2023-04-24T03:58:27;324.43;;;100.83;;
75156;SDS011;63736;50.076;8.198;2023-04-24T04:00:53;332.90;;;101.43;;
75156;SDS011;63736;50.076;8.198;2023-04-24T04:03:18;342.93;;;101.03;;
75156;SDS011;63736;50.076;8.198;2023-04-24T04:05:43;343.73;;;101.87;;
75156;SDS011;63736;50.076;8.198;2023-04-24T04:08:08;325.23;;;96.77;;
75156;SDS011;63736;50.076;8.198;2023-04-24T04:10:34;314.20;;;94.00;;
75156;SDS011;63736;50.076;8.198;2023-04-24T04:12:59;306.03;;;93.10;;
75156;SDS011;63736;50.076;8.198;2023-04-24T04:15:25;305.98;;;91.93;;
75156;SDS011;63736;50.076;8.198;2023-04-24T04:17:50;306.77;;;93.10;;
75156;SDS011;63736;50.076;8.198;2023-04-24T04:20:15;297.43;;;89.93;;
75156;SDS011;63736;50.076;8.198;2023-04-24T04:22:41;301.83;;;90.60;;
75156;SDS011;63736;50.076;8.198;2023-04-24T04:25:06;305.27;;;90.97;;
75156;SDS011;63736;50.076;8.198;2023-04-24T04:27:33;308.00;;;92.13;;
75156;SDS011;63736;50.076;8.198;2023-04-24T04:29:59;322.67;;;95.20;;
75156;SDS011;63736;50.076;8.198;2023-04-24T04:32:29;336.48;;;98.55;;
75156;SDS011;63736;50.076;8.198;2023-04-24T04:34:55;339.63;;;98.65;;
75156;SDS011;63736;50.076;8.198;2023-04-24T04:37:20;341.60;;;99.10;;
75156;SDS011;63736;50.076;8.198;2023-04-24T04:39:45;343.73;;;99.43;;
75156;SDS011;63736;50.076;8.198;2023-04-24T04:42:11;348.03;;;100.37;;
75156;SDS011;63736;50.076;8.198;2023-04-24T04:44:36;347.33;;;100.77;;
75156;SDS011;63736;50.076;8.198;2023-04-24T04:47:03;343.85;;;99.60;;
75156;SDS011;63736;50.076;8.198;2023-04-24T04:49:30;339.45;;;98.80;;
75156;SDS011;63736;50.076;8.198;2023-04-24T04:51:59;336.80;;;97.82;;
75156;SDS011;63736;50.076;8.198;2023-04-24T04:54:24;334.70;;;98.23;;
75156;SDS011;63736;50.076;8.198;2023-04-24T04:56:50;339.50;;;98.63;;
75156;SDS011;63736;50.076;8.198;2023-04-24T04:59:15;334.37;;;97.47;;
75156;SDS011;63736;50.076;8.198;2023-04-24T05:01:41;332.23;;;96.85;;
75156;SDS011;63736;50.076;8.198;2023-04-24T05:04:06;329.40;;;96.53;;
75156;SDS011;63736;50.076;8.198;2023-04-24T05:06:31;329.30;;;96.83;;
75156;SDS011;63736;50.076;8.198;2023-04-24T05:08:57;330.33;;;97.70;;
75156;SDS011;63736;50.076;8.198;2023-04-24T05:11:22;324.67;;;95.53;;
75156;SDS011;63736;50.076;8.198;2023-04-24T05:13:48;322.95;;;95.93;;
75156;SDS011;63736;50.076;8.198;2023-04-24T05:16:13;372.20;;;105.43;;
75156;SDS011;63736;50.076;8.198;2023-04-24T05:18:38;413.53;;;114.43;;
75156;SDS011;63736;50.076;8.198;2023-04-24T05:21:03;395.83;;;109.90;;
75156;SDS011;63736;50.076;8.198;2023-04-24T05:23:29;388.33;;;108.37;;
75156;SDS011;63736;50.076;8.198;2023-04-24T05:25:54;340.00;;;98.23;;
75156;SDS011;63736;50.076;8.198;2023-04-24T05:28:19;339.53;;;98.53;;
75156;SDS011;63736;50.076;8.198;2023-04-24T05:30:45;329.00;;;96.03;;
75156;SDS011;63736;50.076;8.198;2023-04-24T05:33:11;316.03;;;93.93;;
75156;SDS011;63736;50.076;8.198;2023-04-24T05:35:36;303.60;;;90.97;;
75156;SDS011;63736;50.076;8.198;2023-04-24T05:38:01;301.07;;;90.03;;
75156;SDS011;63736;50.076;8.198;2023-04-24T05:40:27;294.73;;;89.67;;
75156;SDS011;63736;50.076;8.198;2023-04-24T05:42:52;283.70;;;87.23;;
75156;SDS011;63736;50.076;8.198;2023-04-24T05:45:17;278.20;;;86.33;;
75156;SDS011;63736;50.076;8.198;2023-04-24T05:47:43;276.13;;;85.90;;
75156;SDS011;63736;50.076;8.198;2023-04-24T05:50:09;364.90;;;104.45;;
75156;SDS011;63736;50.076;8.198;2023-04-24T05:52:34;371.27;;;104.25;;
75156;SDS011;63736;50.076;8.198;2023-04-24T05:55:00;306.60;;;91.10;;
75156;SDS011;63736;50.076;8.198;2023-04-24T05:57:25;325.23;;;94.97;;
75156;SDS011;63736;50.076;8.198;2023-04-24T05:59:51;313.73;;;92.63;;
75156;SDS011;63736;50.076;8.198;2023-04-24T06:02:16;328.97;;;96.73;;
75156;SDS011;63736;50.076;8.198;2023-04-24T06:04:42;336.38;;;98.15;;
75156;SDS011;63736;50.076;8.198;2023-04-24T06:07:07;338.57;;;98.63;;
75156;SDS011;63736;50.076;8.198;2023-04-24T06:09:32;313.00;;;94.00;;
75156;SDS011;63736;50.076;8.198;2023-04-24T06:11:58;297.70;;;91.57;;
75156;SDS011;63736;50.076;8.198;2023-04-24T06:14:24;307.67;;;92.88;;
75156;SDS011;63736;50.076;8.198;2023-04-24T06:16:50;363.40;;;103.50;;
75156;SDS011;63736;50.076;8.198;2023-04-24T06:19:15;295.17;;;90.85;;
75156;SDS011;63736;50.076;8.198;2023-04-24T06:21:41;286.43;;;88.97;;
75156;SDS011;63736;50.076;8.198;2023-04-24T06:24:06;285.77;;;88.60;;
75156;SDS011;63736;50.076;8.198;2023-04-24T06:26:31;248.23;;;81.70;;
75156;SDS011;63736;50.076;8.198;2023-04-24T06:28:57;271.13;;;86.73;;
75156;SDS011;63736;50.076;8.198;2023-04-24T06:31:24;255.07;;;82.85;;
75156;SDS011;63736;50.076;8.198;2023-04-24T06:33:49;324.63;;;96.03;;
75156;SDS011;63736;50.076;8.198;2023-04-24T06:36:14;314.52;;;94.05;;
75156;SDS011;63736;50.076;8.198;2023-04-24T06:38:40;314.33;;;94.00;;
75156;SDS011;63736;50.076;8.198;2023-04-24T06:41:06;319.77;;;95.63;;
75156;SDS011;63736;50.076;8.198;2023-04-24T06:43:31;368.60;;;104.13;;
75156;SDS011;63736;50.076;8.198;2023-04-24T06:45:57;436.10;;;116.67;;
75156;SDS011;63736;50.076;8.198;2023-04-24T06:48:23;443.30;;;118.18;;
75156;SDS011;63736;50.076;8.198;2023-04-24T06:50:49;425.52;;;115.40;;
75156;SDS011;63736;50.076;8.198;2023-04-24T06:53:14;423.43;;;113.97;;
75156;SDS011;63736;50.076;8.198;2023-04-24T06:55:40;409.00;;;111.97;;
75156;SDS011;63736;50.076;8.198;2023-04-24T06:58:05;404.73;;;110.38;;
75156;SDS011;63736;50.076;8.198;2023-04-24T07:00:31;418.17;;;112.77;;
75156;SDS011;63736;50.076;8.198;2023-04-24T07:02:56;397.30;;;110.22;;
75156;SDS011;63736;50.076;8.198;2023-04-24T07:05:22;387.50;;;107.37;;
75156;SDS011;63736;50.076;8.198;2023-04-24T07:07:48;398.90;;;110.38;;
75156;SDS011;63736;50.076;8.198;2023-04-24T07:10:14;420.90;;;113.78;;
75156;SDS011;63736;50.076;8.198;2023-04-24T07:12:40;488.97;;;127.17;;
75156;SDS011;63736;50.076;8.198;2023-04-24T07:15:05;503.87;;;131.33;;
75156;SDS011;63736;50.076;8.198;2023-04-24T07:17:32;426.80;;;114.28;;
75156;SDS011;63736;50.076;8.198;2023-04-24T07:19:59;373.80;;;105.07;;
75156;SDS011;63736;50.076;8.198;2023-04-24T07:22:24;428.30;;;113.93;;
75156;SDS011;63736;50.076;8.198;2023-04-24T07:24:50;478.23;;;127.77;;
75156;SDS011;63736;50.076;8.198;2023-04-24T07:27:15;280.67;;;88.17;;
75156;SDS011;63736;50.076;8.198;2023-04-24T07:29:41;279.20;;;88.23;;
75156;SDS011;63736;50.076;8.198;2023-04-24T07:32:06;252.97;;;83.50;;
75156;SDS011;63736;50.076;8.198;2023-04-24T07:34:32;246.75;;;82.22;;
75156;SDS011;63736;50.076;8.198;2023-04-24T07:36:58;247.50;;;82.03;;
75156;SDS011;63736;50.076;8.198;2023-04-24T07:39:23;240.93;;;80.40;;
75156;SDS011;63736;50.076;8.198;2023-04-24T07:41:48;253.50;;;83.27;;
75156;SDS011;63736;50.076;8.198;2023-04-24T07:44:14;186.60;;;70.17;;
75156;SDS011;63736;50.076;8.198;2023-04-24T07:46:39;143.73;;;62.80;;
75156;SDS011;63736;50.076;8.198;2023-04-24T07:49:05;211.35;;;74.35;;
75156;SDS011;63736;50.076;8.198;2023-04-24T07:51:30;195.57;;;71.90;;
75156;SDS011;63736;50.076;8.198;2023-04-24T07:53:56;194.43;;;71.28;;
75156;SDS011;63736;50.076;8.198;2023-04-24T07:56:21;214.63;;;76.20;;
75156;SDS011;63736;50.076;8.198;2023-04-24T07:58:47;231.83;;;79.87;;
75156;SDS011;63736;50.076;8.198;2023-04-24T08:01:12;240.67;;;81.63;;
75156;SDS011;63736;50.076;8.198;2023-04-24T08:03:37;248.73;;;82.63;;
75156;SDS011;63736;50.076;8.198;2023-04-24T08:06:03;207.80;;;74.20;;
75156;SDS011;63736;50.076;8.198;2023-04-24T08:08:28;187.57;;;69.37;;
75156;SDS011;63736;50.076;8.198;2023-04-24T08:10:53;179.60;;;69.27;;
75156;SDS011;63736;50.076;8.198;2023-04-24T08:13:21;137.43;;;60.40;;
75156;SDS011;63736;50.076;8.198;2023-04-24T08:15:46;219.70;;;76.00;;
75156;SDS011;63736;50.076;8.198;2023-04-24T08:18:12;286.03;;;89.27;;
75156;SDS011;63736;50.076;8.198;2023-04-24T08:20:38;330.27;;;96.85;;
75156;SDS011;63736;50.076;8.198;2023-04-24T08:23:04;253.07;;;82.47;;
75156;SDS011;63736;50.076;8.198;2023-04-24T08:25:29;274.53;;;86.00;;
75156;SDS011;63736;50.076;8.198;2023-04-24T08:27:55;295.33;;;90.73;;
75156;SDS011;63736;50.076;8.198;2023-04-24T08:30:20;376.37;;;105.93;;
75156;SDS011;63736;50.076;8.198;2023-04-24T08:32:45;385.60;;;107.83;;
75156;SDS011;63736;50.076;8.198;2023-04-24T08:35:11;365.73;;;105.70;;
75156;SDS011;63736;50.076;8.198;2023-04-24T08:37:36;370.40;;;105.32;;
75156;SDS011;63736;50.076;8.198;2023-04-24T08:40:03;359.43;;;102.17;;
75156;SDS011;63736;50.076;8.198;2023-04-24T08:42:35;340.00;;;98.95;;
75156;SDS011;63736;50.076;8.198;2023-04-24T08:45:02;360.48;;;103.38;;
75156;SDS011;63736;50.076;8.198;2023-04-24T08:47:27;377.70;;;105.97;;
75156;SDS011;63736;50.076;8.198;2023-04-24T08:49:54;357.05;;;102.10;;
75156;SDS011;63736;50.076;8.198;2023-04-24T08:52:20;354.37;;;101.57;;
75156;SDS011;63736;50.076;8.198;2023-04-24T08:54:46;343.45;;;98.90;;
75156;SDS011;63736;50.076;8.198;2023-04-24T08:57:12;340.67;;;98.78;;
75156;SDS011;63736;50.076;8.198;2023-04-24T08:59:39;329.02;;;96.32;;
75156;SDS011;63736;50.076;8.198;2023-04-24T09:02:05;329.73;;;96.97;;
75156;SDS011;63736;50.076;8.198;2023-04-24T09:04:34;327.65;;;96.25;;
75156;SDS011;63736;50.076;8.198;2023-04-24T09:07:00;328.67;;;96.33;;
75156;SDS011;63736;50.076;8.198;2023-04-24T09:09:25;326.00;;;95.72;;
75156;SDS011;63736;50.076;8.198;2023-04-24T09:11:51;322.20;;;94.90;;
75156;SDS011;63736;50.076;8.198;2023-04-24T09:14:19;322.63;;;94.45;;
75156;SDS011;63736;50.076;8.198;2023-04-24T09:16:45;329.02;;;95.70;;
75156;SDS011;63736;50.076;8.198;2023-04-24T09:19:11;342.77;;;98.17;;
75156;SDS011;63736;50.076;8.198;2023-04-24T09:21:36;373.00;;;105.17;;
75156;SDS011;63736;50.076;8.198;2023-04-24T09:24:05;369.87;;;104.10;;
75156;SDS011;63736;50.076;8.198;2023-04-24T09:26:34;363.77;;;102.25;;
75156;SDS011;63736;50.076;8.198;2023-04-24T09:29:01;348.65;;;100.25;;
75156;SDS011;63736;50.076;8.198;2023-04-24T09:31:28;340.65;;;98.55;;
75156;SDS011;63736;50.076;8.198;2023-04-24T09:34:01;342.17;;;98.65;;
75156;SDS011;63736;50.076;8.198;2023-04-24T09:36:33;341.23;;;98.20;;
75156;SDS011;63736;50.076;8.198;2023-04-24T09:39:02;336.13;;;97.40;;
75156;SDS011;63736;50.076;8.198;2023-04-24T09:41:29;337.63;;;98.25;;
75156;SDS011;63736;50.076;8.198;2023-04-24T09:43:55;368.17;;;103.70;;
75156;SDS011;63736;50.076;8.198;2023-04-24T09:46:28;437.60;;;116.93;;
75156;SDS011;63736;50.076;8.198;2023-04-24T09:48:55;424.63;;;115.18;;
75156;SDS011;63736;50.076;8.198;2023-04-24T09:51:33;411.97;;;111.70;;
75156;SDS011;63736;50.076;8.198;2023-04-24T09:54:01;394.00;;;108.80;;
75156;SDS011;63736;50.076;8.198;2023-04-24T09:56:26;365.50;;;103.47;;
75156;SDS011;63736;50.076;8.198;2023-04-24T09:58:51;394.87;;;109.57;;
75156;SDS011;63736;50.076;8.198;2023-04-24T10:01:29;403.25;;;110.95;;
75156;SDS011;63736;50.076;8.198;2023-04-24T10:03:55;370.87;;;104.20;;
75156;SDS011;63736;50.076;8.198;2023-04-24T10:06:20;361.85;;;102.88;;
75156;SDS011;63736;50.076;8.198;2023-04-24T10:08:46;368.90;;;103.73;;
75156;SDS011;63736;50.076;8.198;2023-04-24T10:11:13;358.55;;;102.68;;
75156;SDS011;63736;50.076;8.198;2023-04-24T10:13:39;362.17;;;103.65;;
75156;SDS011;63736;50.076;8.198;2023-04-24T10:16:05;376.07;;;105.83;;
75156;SDS011;63736;50.076;8.198;2023-04-24T10:18:32;364.10;;;103.80;;
75156;SDS011;63736;50.076;8.198;2023-04-24T10:20:59;355.58;;;101.95;;
75156;SDS011;63736;50.076;8.198;2023-04-24T10:23:25;387.42;;;107.93;;
75156;SDS011;63736;50.076;8.198;2023-04-24T10:25:50;393.43;;;109.10;;
75156;SDS011;63736;50.076;8.198;2023-04-24T10:28:16;386.08;;;108.55;;
75156;SDS011;63736;50.076;8.198;2023-04-24T10:30:43;384.20;;;108.10;;
75156;SDS011;63736;50.076;8.198;2023-04-24T10:33:08;389.70;;;108.88;;
75156;SDS011;63736;50.076;8.198;2023-04-24T10:35:34;435.53;;;116.53;;
75156;SDS011;63736;50.076;8.198;2023-04-24T10:38:06;424.83;;;115.70;;
75156;SDS011;63736;50.076;8.198;2023-04-24T10:40:34;407.98;;;112.15;;
75156;SDS011;63736;50.076;8.198;2023-04-24T10:43:04;369.83;;;103.95;;
75156;SDS011;63736;50.076;8.198;2023-04-24T10:45:32;332.03;;;96.67;;
75156;SDS011;63736;50.076;8.198;2023-04-24T10:47:59;348.45;;;99.68;;
75156;SDS011;63736;50.076;8.198;2023-04-24T10:50:27;339.23;;;98.55;;
75156;SDS011;63736;50.076;8.198;2023-04-24T10:52:55;327.63;;;95.60;;
75156;SDS011;63736;50.076;8.198;2023-04-24T10:55:39;324.63;;;95.60;;
75156;SDS011;63736;50.076;8.198;2023-04-24T10:58:06;312.95;;;94.45;;
75156;SDS011;63736;50.076;8.198;2023-04-24T11:00:31;322.87;;;94.73;;
75156;SDS011;63736;50.076;8.198;2023-04-24T11:02:57;301.90;;;92.37;;
75156;SDS011;63736;50.076;8.198;2023-04-24T11:05:22;299.02;;;91.55;;
75156;SDS011;63736;50.076;8.198;2023-04-24T11:08:11;299.75;;;90.93;;
75156;SDS011;63736;50.076;8.198;2023-04-24T11:11:07;308.33;;;93.53;;
75156;SDS011;63736;50.076;8.198;2023-04-24T11:16:21;301.63;;;91.95;;
75156;SDS011;63736;50.076;8.198;2023-04-24T11:18:50;323.77;;;96.07;;
75156;SDS011;63736;50.076;8.198;2023-04-24T11:21:19;307.35;;;93.68;;
75156;SDS011;63736;50.076;8.198;2023-04-24T11:23:44;274.23;;;86.87;;
75156;SDS011;63736;50.076;8.198;2023-04-24T11:26:21;267.85;;;85.53;;
75156;SDS011;63736;50.076;8.198;2023-04-24T11:28:49;271.57;;;88.03;;
75156;SDS011;63736;50.076;8.198;2023-04-24T11:34:07;246.50;;;82.55;;
75156;SDS011;63736;50.076;8.198;2023-04-24T11:36:34;391.10;;;108.60;;
75156;SDS011;63736;50.076;8.198;2023-04-24T11:39:00;402.48;;;110.53;;
75156;SDS011;63736;50.076;8.198;2023-04-24T11:41:26;248.33;;;79.97;;
75156;SDS011;63736;50.076;8.198;2023-04-24T11:43:52;165.95;;;64.25;;
75156;SDS011;63736;50.076;8.198;2023-04-24T11:46:20;252.55;;;84.03;;
75156;SDS011;63736;50.076;8.198;2023-04-24T11:48:46;341.97;;;98.97;;
75156;SDS011;63736;50.076;8.198;2023-04-24T11:51:12;387.23;;;109.00;;
75156;SDS011;63736;50.076;8.198;2023-04-24T11:53:37;387.17;;;109.10;;
75156;SDS011;63736;50.076;8.198;2023-04-24T11:56:03;353.87;;;102.83;;
75156;SDS011;63736;50.076;8.198;2023-04-24T11:58:34;330.13;;;97.70;;
75156;SDS011;63736;50.076;8.198;2023-04-24T12:00:59;322.75;;;97.28;;
75156;SDS011;63736;50.076;8.198;2023-04-24T12:03:26;315.52;;;94.95;;
75156;SDS011;63736;50.076;8.198;2023-04-24T12:05:51;307.27;;;92.87;;
75156;SDS011;63736;50.076;8.198;2023-04-24T12:08:27;306.90;;;93.32;;
75156;SDS011;63736;50.076;8.198;2023-04-24T12:10:53;312.10;;;94.83;;
75156;SDS011;63736;50.076;8.198;2023-04-24T12:13:18;342.93;;;98.90;;
75156;SDS011;63736;50.076;8.198;2023-04-24T12:15:44;425.70;;;115.43;;
75156;SDS011;63736;50.076;8.198;2023-04-24T12:18:11;398.57;;;110.43;;
75156;SDS011;63736;50.076;8.198;2023-04-24T12:20:37;398.80;;;111.47;;
75156;SDS011;63736;50.076;8.198;2023-04-24T12:23:02;414.47;;;113.57;;
75156;SDS011;63736;50.076;8.198;2023-04-24T12:25:29;409.37;;;112.40;;
75156;SDS011;63736;50.076;8.198;2023-04-24T12:30:30;302.38;;;91.82;;
75156;SDS011;63736;50.076;8.198;2023-04-24T12:32:58;306.10;;;92.85;;
75156;SDS011;63736;50.076;8.198;2023-04-24T12:35:26;327.67;;;96.37;;
75156;SDS011;63736;50.076;8.198;2023-04-24T12:37:52;344.08;;;99.05;;
75156;SDS011;63736;50.076;8.198;2023-04-24T12:40:18;296.17;;;90.60;;
75156;SDS011;63736;50.076;8.198;2023-04-24T12:42:46;271.45;;;86.85;;
75156;SDS011;63736;50.076;8.198;2023-04-24T12:45:12;338.58;;;99.03;;
75156;SDS011;63736;50.076;8.198;2023-04-24T12:47:38;344.13;;;100.15;;
75156;SDS011;63736;50.076;8.198;2023-04-24T12:50:05;355.57;;;101.90;;
75156;SDS011;63736;50.076;8.198;2023-04-24T12:52:34;313.15;;;93.50;;
75156;SDS011;63736;50.076;8.198;2023-04-24T12:55:00;312.42;;;92.97;;
75156;SDS011;63736;50.076;8.198;2023-04-24T12:57:26;298.67;;;90.43;;
75156;SDS011;63736;50.076;8.198;2023-04-24T12:59:54;285.88;;;88.18;;
75156;SDS011;63736;50.076;8.198;2023-04-24T13:02:20;280.08;;;87.13;;
75156;SDS011;63736;50.076;8.198;2023-04-24T13:04:47;276.42;;;86.35;;
75156;SDS011;63736;50.076;8.198;2023-04-24T13:07:13;284.20;;;87.73;;
75156;SDS011;63736;50.076;8.198;2023-04-24T13:09:39;276.48;;;86.38;;
75156;SDS011;63736;50.076;8.198;2023-04-24T13:12:04;280.33;;;87.27;;
75156;SDS011;63736;50.076;8.198;2023-04-24T13:14:30;285.92;;;88.97;;
75156;SDS011;63736;50.076;8.198;2023-04-24T13:16:56;274.48;;;86.30;;
75156;SDS011;63736;50.076;8.198;2023-04-24T13:19:23;268.67;;;83.73;;
75156;SDS011;63736;50.076;8.198;2023-04-24T13:21:49;266.58;;;83.85;;
75156;SDS011;63736;50.076;8.198;2023-04-24T13:24:15;268.03;;;84.03;;
75156;SDS011;63736;50.076;8.198;2023-04-24T13:26:40;271.63;;;84.77;;
75156;SDS011;63736;50.076;8.198;2023-04-24T13:29:06;272.77;;;84.93;;
75156;SDS011;63736;50.076;8.198;2023-04-24T13:31:31;273.37;;;85.10;;
75156;SDS011;63736;50.076;8.198;2023-04-24T13:33:56;274.53;;;85.10;;
75156;SDS011;63736;50.076;8.198;2023-04-24T13:36:22;277.87;;;86.33;;
75156;SDS011;63736;50.076;8.198;2023-04-24T13:38:47;278.90;;;85.93;;
75156;SDS011;63736;50.076;8.198;2023-04-24T13:41:12;283.90;;;89.27;;
75156;SDS011;63736;50.076;8.198;2023-04-24T13:43:38;285.23;;;89.20;;
75156;SDS011;63736;50.076;8.198;2023-04-24T13:46:03;286.47;;;88.47;;
75156;SDS011;63736;50.076;8.198;2023-04-24T13:48:29;284.08;;;87.30;;
75156;SDS011;63736;50.076;8.198;2023-04-24T13:50:54;277.42;;;87.07;;
75156;SDS011;63736;50.076;8.198;2023-04-24T13:53:20;293.80;;;89.70;;
75156;SDS011;63736;50.076;8.198;2023-04-24T13:55:45;315.27;;;93.50;;
75156;SDS011;63736;50.076;8.198;2023-04-24T13:58:11;355.17;;;101.03;;
75156;SDS011;63736;50.076;8.198;2023-04-24T14:00:36;347.00;;;100.00;;
75156;SDS011;63736;50.076;8.198;2023-04-24T14:03:01;337.20;;;97.87;;
75156;SDS011;63736;50.076;8.198;2023-04-24T14:05:26;325.33;;;95.70;;
75156;SDS011;63736;50.076;8.198;2023-04-24T14:07:52;332.17;;;96.23;;